EKSBEKOD

Guest
Details From EKSB - Sonderborg
To EKOD - Odense
Flight Number -
Tags generated
Created
Modified
Stats Distance 39 nm / 72 km
Max Altitude 2,800 ft / 853 m
Waypoints 3
Social Downloads 9
Likes 0
Share VATSIM

Download

Looking for another format? Having issues loading an existing format? Contact us
Advertisement - Login to hide

Notes

Basic altitude profile: - Ascent Rate: 2500ft/min - Ascent Speed: 250kts - Cruise Altitude: 35000ft - Cruise Speed: 420kts - Descent Rate: 1500ft/min - Descent Speed: 250kts Options: - Use NATs: yes - Use PACOTS: yes - Use low airways: yes - Use high airways: yes

Route

EKSB ASBIL EKOD

ID Type Via Altitude Latitude Longitude Leg Dist Tot Dist Heading (true) Name
O EKSB APT - 0 ft / 0 m 54.96283˚ 9.79402˚ - 0 nm - Sonderborg
ASBIL FIX - 2,800 ft / 853 m 55.37194˚ 9.99389˚ 25 nm 25 nm 16° / 16° -
O EKOD APT - 0 ft / 0 m 55.47529˚ 10.33326˚ 13 nm 38 nm 62° / 62° Odense

Altitude Profile

Advertisement - Login to hide

EKSB

Details ICAO EKSB (SGD)
Name Sonderborg
Region Denmark / Faroe Islands
Timezone Europe/Copenhagen (UTC+1.0)
Stats Elevation 24 ft / 7 m (AMSL)
Location 54.962829° 9.794023°
Runways 1
Magnetic Variation 2.738° E

METAR

EKSB 121150Z 31015KT 9999 SCT018 03/M00 Q0997

Decode

TAF

Not found

Departure Runways

ID Width Length Bearing (true) Bearing (mag) Surface Threshold Offset Overrun Length
14 98 ft / 30 m 5,884 ft / 1,793 m 139.42° 136.68° Asphalt 0 ft / 0 m 0 ft / 0 m
32 98 ft / 30 m 5,884 ft / 1,793 m 319.43° 316.69° Asphalt 0 ft / 0 m 0 ft / 0 m

EKOD

Details ICAO EKOD (ODE)
Name Odense
Region Denmark / Faroe Islands
Timezone Europe/Copenhagen (UTC+1.0)
Stats Elevation 56 ft / 17 m (AMSL)
Location 55.475291° 10.333263°
Runways 2
Magnetic Variation 2.930° E

METAR

EKOD 121150Z 32015KT 9999 FEW035 SCT110 01/M00 Q0997

Decode

TAF

Not found

Destination Runways

ID Width Length Bearing (true) Bearing (mag) Surface Threshold Offset Overrun Length
06 148 ft / 45 m 6,038 ft / 1,840 m 59.70° 56.77° Asphalt 0 ft / 0 m 0 ft / 0 m
13 98 ft / 30 m 2,275 ft / 693 m 130.00° 127.07° Grass 0 ft / 0 m 0 ft / 0 m
24 148 ft / 45 m 6,038 ft / 1,840 m 239.72° 236.79° Asphalt 0 ft / 0 m 984 ft / 300 m
31 98 ft / 30 m 2,275 ft / 693 m 310.00° 307.07° Grass 361 ft / 110 m 0 ft / 0 m

Approach Navaids

Runway Type Ident Frequency Range Bearing (true) Bearing (mag) Slope Elevation
24 Localiser OD 108.35 MHz 18 nm / 33 km 239.70° 236.77° - 56 ft / 17 m (AMSL)
24 Glidescope OD 108.35 MHz 10 nm / 19 km 239.71° 236.78° 3.00° 56 ft / 17 m (AMSL)
24 DME OD 108.35 MHz 18 nm / 33 km - - - 56 ft / 17 m (AMSL)